<?xml version="1.0" encoding="UTF-8" standalone="no" ?>
<gpx xmlns="http://www.topografix.com/GPX/1/1" xmlns:xsi="http://www.w3.org/2001/XMLSchema-instance" xsi:schemaLocation="http://www.topografix.com/GPX/1/1 http://www.topografix.com/GPX/1/1/gpx.xsd" version="1.1" creator="VisuGPX - https://www.visugpx.com">
  <metadata>
    <name>Etape 2 Saint-Amand-Montrond &gt; Saint-Florent-sur-Cher</name>
    <desc><![CDATA[Etape 2 qui va de Saint-Amand-Montrond à Saint-Florent-sur-Cher
Parcours du 14 juin]]></desc>
  </metadata>
  <trk>
    <name><![CDATA[20180610195922-k1GEa]]></name>
    <trkseg>
      <trkpt lat="46.73216" lon="2.51294">
        <ele>169</ele>
        <time>2018-04-16T10:19:10Z</time>
      </trkpt>
      <trkpt lat="46.73216" lon="2.51294">
        <ele>169</ele>
        <time>2018-04-16T10:19:16Z</time>
      </trkpt>
      <trkpt lat="46.73228" lon="2.5131">
        <ele>169</ele>
        <time>2018-04-16T10:19:20Z</time>
      </trkpt>
      <trkpt lat="46.73239" lon="2.51315">
        <ele>170</ele>
        <time>2018-04-16T10:19:25Z</time>
      </trkpt>
      <trkpt lat="46.73244" lon="2.51315">
        <ele>170</ele>
        <time>2018-04-16T10:19:27Z</time>
      </trkpt>
      <trkpt lat="46.73258" lon="2.5132">
        <ele>171</ele>
        <time>2018-04-16T10:19:33Z</time>
      </trkpt>
      <trkpt lat="46.73267" lon="2.51332">
        <ele>171</ele>
        <time>2018-04-16T10:19:42Z</time>
      </trkpt>
      <trkpt lat="46.73266" lon="2.51336">
        <ele>172</ele>
        <time>2018-04-16T10:19:46Z</time>
      </trkpt>
      <trkpt lat="46.73266" lon="2.51336">
        <ele>172</ele>
        <time>2018-04-16T10:19:47Z</time>
      </trkpt>
      <trkpt lat="46.73266" lon="2.51336">
        <ele>172</ele>
        <time>2018-04-16T10:19:48Z</time>
      </trkpt>
      <trkpt lat="46.73265" lon="2.51334">
        <ele>172</ele>
        <time>2018-04-16T10:19:51Z</time>
      </trkpt>
      <trkpt lat="46.73265" lon="2.51329">
        <ele>171</ele>
        <time>2018-04-16T10:19:54Z</time>
      </trkpt>
      <trkpt lat="46.73273" lon="2.51284">
        <ele>172</ele>
        <time>2018-04-16T10:20:05Z</time>
      </trkpt>
      <trkpt lat="46.73268" lon="2.51256">
        <ele>171</ele>
        <time>2018-04-16T10:20:12Z</time>
      </trkpt>
      <trkpt lat="46.73265" lon="2.51254">
        <ele>171</ele>
        <time>2018-04-16T10:20:13Z</time>
      </trkpt>
      <trkpt lat="46.73263" lon="2.51253">
        <ele>171</ele>
        <time>2018-04-16T10:20:14Z</time>
      </trkpt>
      <trkpt lat="46.7321" lon="2.51232">
        <ele>169</ele>
        <time>2018-04-16T10:20:31Z</time>
      </trkpt>
      <trkpt lat="46.73197" lon="2.51152">
        <ele>169</ele>
        <time>2018-04-16T10:20:48Z</time>
      </trkpt>
      <trkpt lat="46.73193" lon="2.51093">
        <ele>168</ele>
        <time>2018-04-16T10:21:03Z</time>
      </trkpt>
      <trkpt lat="46.73247" lon="2.51105">
        <ele>170</ele>
        <time>2018-04-16T10:21:26Z</time>
      </trkpt>
      <trkpt lat="46.73301" lon="2.51106">
        <ele>171</ele>
        <time>2018-04-16T10:21:45Z</time>
      </trkpt>
      <trkpt lat="46.73335" lon="2.51102">
        <ele>173</ele>
        <time>2018-04-16T10:21:57Z</time>
      </trkpt>
      <trkpt lat="46.73391" lon="2.51086">
        <ele>173</ele>
        <time>2018-04-16T10:22:15Z</time>
      </trkpt>
      <trkpt lat="46.73435" lon="2.51066">
        <ele>175</ele>
        <time>2018-04-16T10:22:30Z</time>
      </trkpt>
      <trkpt lat="46.73438" lon="2.51065">
        <ele>175</ele>
        <time>2018-04-16T10:22:31Z</time>
      </trkpt>
      <trkpt lat="46.73454" lon="2.51055">
        <ele>175</ele>
        <time>2018-04-16T10:22:37Z</time>
      </trkpt>
      <trkpt lat="46.73504" lon="2.51024">
        <ele>178</ele>
        <time>2018-04-16T10:22:54Z</time>
      </trkpt>
      <trkpt lat="46.73521" lon="2.51013">
        <ele>178</ele>
        <time>2018-04-16T10:23:01Z</time>
      </trkpt>
      <trkpt lat="46.73525" lon="2.51017">
        <ele>178</ele>
        <time>2018-04-16T10:23:03Z</time>
      </trkpt>
      <trkpt lat="46.73524" lon="2.51041">
        <ele>178</ele>
        <time>2018-04-16T10:23:08Z</time>
      </trkpt>
      <trkpt lat="46.7352" lon="2.51059">
        <ele>178</ele>
        <time>2018-04-16T10:23:12Z</time>
      </trkpt>
      <trkpt lat="46.73512" lon="2.51086">
        <ele>178</ele>
        <time>2018-04-16T10:23:18Z</time>
      </trkpt>
      <trkpt lat="46.73501" lon="2.51114">
        <ele>179</ele>
        <time>2018-04-16T10:23:24Z</time>
      </trkpt>
      <trkpt lat="46.73489" lon="2.51145">
        <ele>177</ele>
        <time>2018-04-16T10:23:32Z</time>
      </trkpt>
      <trkpt lat="46.73488" lon="2.51149">
        <ele>177</ele>
        <time>2018-04-16T10:23:33Z</time>
      </trkpt>
      <trkpt lat="46.73487" lon="2.51154">
        <ele>177</ele>
        <time>2018-04-16T10:23:34Z</time>
      </trkpt>
      <trkpt lat="46.73486" lon="2.51158">
        <ele>177</ele>
        <time>2018-04-16T10:23:35Z</time>
      </trkpt>
      <trkpt lat="46.73472" lon="2.51237">
        <ele>179</ele>
        <time>2018-04-16T10:23:53Z</time>
      </trkpt>
      <trkpt lat="46.73467" lon="2.51277">
        <ele>180</ele>
        <time>2018-04-16T10:24:02Z</time>
      </trkpt>
      <trkpt lat="46.73464" lon="2.51309">
        <ele>180</ele>
        <time>2018-04-16T10:24:09Z</time>
      </trkpt>
      <trkpt lat="46.73456" lon="2.51377">
        <ele>179</ele>
        <time>2018-04-16T10:24:24Z</time>
      </trkpt>
      <trkpt lat="46.73451" lon="2.51457">
        <ele>178</ele>
        <time>2018-04-16T10:24:41Z</time>
      </trkpt>
      <trkpt lat="46.73451" lon="2.5149">
        <ele>178</ele>
        <time>2018-04-16T10:24:49Z</time>
      </trkpt>
      <trkpt lat="46.73451" lon="2.51547">
        <ele>179</ele>
        <time>2018-04-16T10:25:02Z</time>
      </trkpt>
      <trkpt lat="46.73431" lon="2.516">
        <ele>179</ele>
        <time>2018-04-16T10:25:14Z</time>
      </trkpt>
      <trkpt lat="46.73423" lon="2.51597">
        <ele>178</ele>
        <time>2018-04-16T10:25:16Z</time>
      </trkpt>
      <trkpt lat="46.73403" lon="2.51576">
        <ele>175</ele>
        <time>2018-04-16T10:25:21Z</time>
      </trkpt>
      <trkpt lat="46.73393" lon="2.5157">
        <ele>175</ele>
        <time>2018-04-16T10:25:23Z</time>
      </trkpt>
      <trkpt lat="46.73376" lon="2.51565">
        <ele>175</ele>
        <time>2018-04-16T10:25:26Z</time>
      </trkpt>
      <trkpt lat="46.7337" lon="2.51564">
        <ele>175</ele>
        <time>2018-04-16T10:25:27Z</time>
      </trkpt>
      <trkpt lat="46.73332" lon="2.51557">
        <ele>173</ele>
        <time>2018-04-16T10:25:33Z</time>
      </trkpt>
      <trkpt lat="46.73306" lon="2.51552">
        <ele>173</ele>
        <time>2018-04-16T10:25:37Z</time>
      </trkpt>
      <trkpt lat="46.73288" lon="2.51548">
        <ele>173</ele>
        <time>2018-04-16T10:25:40Z</time>
      </trkpt>
      <trkpt lat="46.7327" lon="2.51544">
        <ele>173</ele>
        <time>2018-04-16T10:25:45Z</time>
      </trkpt>
      <trkpt lat="46.73268" lon="2.51542">
        <ele>173</ele>
        <time>2018-04-16T10:25:46Z</time>
      </trkpt>
      <trkpt lat="46.73261" lon="2.5152">
        <ele>174</ele>
        <time>2018-04-16T10:25:51Z</time>
      </trkpt>
      <trkpt lat="46.73268" lon="2.51502">
        <ele>174</ele>
        <time>2018-04-16T10:25:57Z</time>
      </trkpt>
      <trkpt lat="46.73268" lon="2.51499">
        <ele>174</ele>
        <time>2018-04-16T10:25:59Z</time>
      </trkpt>
      <trkpt lat="46.73267" lon="2.515">
        <ele>174</ele>
        <time>2018-04-16T10:26:11Z</time>
      </trkpt>
      <trkpt lat="46.73268" lon="2.515">
        <ele>174</ele>
        <time>2018-04-16T10:26:12Z</time>
      </trkpt>
      <trkpt lat="46.73268" lon="2.51499">
        <ele>174</ele>
        <time>2018-04-16T10:26:13Z</time>
      </trkpt>
      <trkpt lat="46.73268" lon="2.51499">
        <ele>174</ele>
        <time>2018-04-16T10:26:28Z</time>
      </trkpt>
      <trkpt lat="46.73267" lon="2.51503">
        <ele>174</ele>
        <time>2018-04-16T10:26:53Z</time>
      </trkpt>
      <trkpt lat="46.73255" lon="2.51566">
        <ele>173</ele>
        <time>2018-04-16T10:27:07Z</time>
      </trkpt>
      <trkpt lat="46.73256" lon="2.51572">
        <ele>173</ele>
        <time>2018-04-16T10:27:08Z</time>
      </trkpt>
      <trkpt lat="46.73258" lon="2.51578">
        <ele>172</ele>
        <time>2018-04-16T10:27:09Z</time>
      </trkpt>
      <trkpt lat="46.73264" lon="2.51586">
        <ele>172</ele>
        <time>2018-04-16T10:27:11Z</time>
      </trkpt>
      <trkpt lat="46.73267" lon="2.51588">
        <ele>172</ele>
        <time>2018-04-16T10:27:12Z</time>
      </trkpt>
      <trkpt lat="46.73275" lon="2.51589">
        <ele>172</ele>
        <time>2018-04-16T10:27:14Z</time>
      </trkpt>
      <trkpt lat="46.73289" lon="2.51588">
        <ele>173</ele>
        <time>2018-04-16T10:27:18Z</time>
      </trkpt>
      <trkpt lat="46.73313" lon="2.51592">
        <ele>173</ele>
        <time>2018-04-16T10:27:25Z</time>
      </trkpt>
      <trkpt lat="46.7333" lon="2.51596">
        <ele>173</ele>
        <time>2018-04-16T10:27:30Z</time>
      </trkpt>
      <trkpt lat="46.73341" lon="2.51598">
        <ele>174</ele>
        <time>2018-04-16T10:27:33Z</time>
      </trkpt>
      <trkpt lat="46.73355" lon="2.516">
        <ele>175</ele>
        <time>2018-04-16T10:27:37Z</time>
      </trkpt>
      <trkpt lat="46.73387" lon="2.51606">
        <ele>176</ele>
        <time>2018-04-16T10:27:46Z</time>
      </trkpt>
      <trkpt lat="46.73409" lon="2.51599">
        <ele>176</ele>
        <time>2018-04-16T10:27:57Z</time>
      </trkpt>
      <trkpt lat="46.73409" lon="2.51599">
        <ele>176</ele>
        <time>2018-04-16T10:28:01Z</time>
      </trkpt>
      <trkpt lat="46.73409" lon="2.51599">
        <ele>176</ele>
        <time>2018-04-16T10:28:02Z</time>
      </trkpt>
      <trkpt lat="46.73409" lon="2.51599">
        <ele>176</ele>
        <time>2018-04-16T10:28:03Z</time>
      </trkpt>
      <trkpt lat="46.73409" lon="2.51599">
        <ele>176</ele>
        <time>2018-04-16T10:28:04Z</time>
      </trkpt>
      <trkpt lat="46.73408" lon="2.51599">
        <ele>176</ele>
        <time>2018-04-16T10:28:05Z</time>
      </trkpt>
      <trkpt lat="46.73408" lon="2.51599">
        <ele>176</ele>
        <time>2018-04-16T10:28:06Z</time>
      </trkpt>
      <trkpt lat="46.73409" lon="2.51599">
        <ele>176</ele>
        <time>2018-04-16T10:28:08Z</time>
      </trkpt>
      <trkpt lat="46.73409" lon="2.51599">
        <ele>176</ele>
        <time>2018-04-16T10:28:09Z</time>
      </trkpt>
      <trkpt lat="46.73409" lon="2.51599">
        <ele>176</ele>
        <time>2018-04-16T10:28:12Z</time>
      </trkpt>
      <trkpt lat="46.7343" lon="2.51609">
        <ele>179</ele>
        <time>2018-04-16T10:28:28Z</time>
      </trkpt>
      <trkpt lat="46.73457" lon="2.51545">
        <ele>179</ele>
        <time>2018-04-16T10:28:44Z</time>
      </trkpt>
      <trkpt lat="46.73457" lon="2.51462">
        <ele>178</ele>
        <time>2018-04-16T10:28:58Z</time>
      </trkpt>
      <trkpt lat="46.73459" lon="2.51387">
        <ele>179</ele>
        <time>2018-04-16T10:29:15Z</time>
      </trkpt>
      <trkpt lat="46.73469" lon="2.51307">
        <ele>180</ele>
        <time>2018-04-16T10:29:55Z</time>
      </trkpt>
      <trkpt lat="46.73473" lon="2.51271">
        <ele>180</ele>
        <time>2018-04-16T10:30:03Z</time>
      </trkpt>
      <trkpt lat="46.73475" lon="2.51244">
        <ele>179</ele>
        <time>2018-04-16T10:30:09Z</time>
      </trkpt>
      <trkpt lat="46.73476" lon="2.51236">
        <ele>179</ele>
        <time>2018-04-16T10:30:11Z</time>
      </trkpt>
      <trkpt lat="46.73477" lon="2.51231">
        <ele>179</ele>
        <time>2018-04-16T10:30:12Z</time>
      </trkpt>
      <trkpt lat="46.73477" lon="2.51226">
        <ele>179</ele>
        <time>2018-04-16T10:30:13Z</time>
      </trkpt>
      <trkpt lat="46.7348" lon="2.51209">
        <ele>179</ele>
        <time>2018-04-16T10:30:16Z</time>
      </trkpt>
      <trkpt lat="46.73482" lon="2.51203">
        <ele>178</ele>
        <time>2018-04-16T10:30:17Z</time>
      </trkpt>
      <trkpt lat="46.73485" lon="2.51183">
        <ele>178</ele>
        <time>2018-04-16T10:30:20Z</time>
      </trkpt>
      <trkpt lat="46.73494" lon="2.51143">
        <ele>177</ele>
        <time>2018-04-16T10:30:26Z</time>
      </trkpt>
      <trkpt lat="46.73511" lon="2.51098">
        <ele>178</ele>
        <time>2018-04-16T10:30:33Z</time>
      </trkpt>
      <trkpt lat="46.73518" lon="2.51079">
        <ele>178</ele>
        <time>2018-04-16T10:30:36Z</time>
      </trkpt>
      <trkpt lat="46.73529" lon="2.51033">
        <ele>179</ele>
        <time>2018-04-16T10:31:20Z</time>
      </trkpt>
      <trkpt lat="46.73529" lon="2.51033">
        <ele>179</ele>
        <time>2018-04-16T10:31:23Z</time>
      </trkpt>
      <trkpt lat="46.73529" lon="2.51033">
        <ele>179</ele>
        <time>2018-04-16T10:31:28Z</time>
      </trkpt>
      <trkpt lat="46.73536" lon="2.51">
        <ele>178</ele>
        <time>2018-04-16T10:31:36Z</time>
      </trkpt>
      <trkpt lat="46.73541" lon="2.50964">
        <ele>178</ele>
        <time>2018-04-16T10:31:42Z</time>
      </trkpt>
      <trkpt lat="46.73548" lon="2.50921">
        <ele>178</ele>
        <time>2018-04-16T10:31:49Z</time>
      </trkpt>
      <trkpt lat="46.7356" lon="2.50857">
        <ele>177</ele>
        <time>2018-04-16T10:31:59Z</time>
      </trkpt>
      <trkpt lat="46.73562" lon="2.5085">
        <ele>177</ele>
        <time>2018-04-16T10:32:00Z</time>
      </trkpt>
      <trkpt lat="46.73564" lon="2.50843">
        <ele>177</ele>
        <time>2018-04-16T10:32:01Z</time>
      </trkpt>
      <trkpt lat="46.73569" lon="2.5083">
        <ele>176</ele>
        <time>2018-04-16T10:32:03Z</time>
      </trkpt>
      <trkpt lat="46.73571" lon="2.50823">
        <ele>176</ele>
        <time>2018-04-16T10:32:04Z</time>
      </trkpt>
      <trkpt lat="46.73573" lon="2.50816">
        <ele>176</ele>
        <time>2018-04-16T10:32:05Z</time>
      </trkpt>
      <trkpt lat="46.73575" lon="2.5081">
        <ele>176</ele>
        <time>2018-04-16T10:32:06Z</time>
      </trkpt>
      <trkpt lat="46.73586" lon="2.50779">
        <ele>178</ele>
        <time>2018-04-16T10:32:11Z</time>
      </trkpt>
      <trkpt lat="46.73591" lon="2.50758">
        <ele>177</ele>
        <time>2018-04-16T10:32:16Z</time>
      </trkpt>
      <trkpt lat="46.73582" lon="2.50736">
        <ele>175</ele>
        <time>2018-04-16T10:32:21Z</time>
      </trkpt>
      <trkpt lat="46.73581" lon="2.50724">
        <ele>175</ele>
        <time>2018-04-16T10:32:23Z</time>
      </trkpt>
      <trkpt lat="46.73584" lon="2.50711">
        <ele>177</ele>
        <time>2018-04-16T10:32:26Z</time>
      </trkpt>
      <trkpt lat="46.73588" lon="2.50701">
        <ele>177</ele>
        <time>2018-04-16T10:32:32Z</time>
      </trkpt>
      <trkpt lat="46.7359" lon="2.50699">
        <ele>177</ele>
        <time>2018-04-16T10:32:34Z</time>
      </trkpt>
      <trkpt lat="46.73592" lon="2.50695">
        <ele>176</ele>
        <time>2018-04-16T10:32:37Z</time>
      </trkpt>
      <trkpt lat="46.73594" lon="2.50692">
        <ele>176</ele>
        <time>2018-04-16T10:32:39Z</time>
      </trkpt>
      <trkpt lat="46.73596" lon="2.50689">
        <ele>176</ele>
        <time>2018-04-16T10:32:41Z</time>
      </trkpt>
      <trkpt lat="46.73597" lon="2.50686">
        <ele>176</ele>
        <time>2018-04-16T10:32:43Z</time>
      </trkpt>
      <trkpt lat="46.73598" lon="2.50685">
        <ele>176</ele>
        <time>2018-04-16T10:32:44Z</time>
      </trkpt>
      <trkpt lat="46.736" lon="2.5068">
        <ele>176</ele>
        <time>2018-04-16T10:32:47Z</time>
      </trkpt>
      <trkpt lat="46.7361" lon="2.50665">
        <ele>176</ele>
        <time>2018-04-16T10:32:56Z</time>
      </trkpt>
      <trkpt lat="46.73621" lon="2.50647">
        <ele>176</ele>
        <time>2018-04-16T10:33:03Z</time>
      </trkpt>
      <trkpt lat="46.73636" lon="2.50626">
        <ele>176</ele>
        <time>2018-04-16T10:33:14Z</time>
      </trkpt>
      <trkpt lat="46.73637" lon="2.50625">
        <ele>176</ele>
        <time>2018-04-16T10:33:15Z</time>
      </trkpt>
      <trkpt lat="46.73638" lon="2.50623">
        <ele>176</ele>
        <time>2018-04-16T10:33:16Z</time>
      </trkpt>
      <trkpt lat="46.73646" lon="2.50609">
        <ele>176</ele>
        <time>2018-04-16T10:33:24Z</time>
      </trkpt>
      <trkpt lat="46.73653" lon="2.50593">
        <ele>176</ele>
        <time>2018-04-16T10:34:02Z</time>
      </trkpt>
      <trkpt lat="46.73652" lon="2.50593">
        <ele>176</ele>
        <time>2018-04-16T10:34:11Z</time>
      </trkpt>
      <trkpt lat="46.73651" lon="2.50594">
        <ele>176</ele>
        <time>2018-04-16T10:34:34Z</time>
      </trkpt>
      <trkpt lat="46.73651" lon="2.50593">
        <ele>176</ele>
        <time>2018-04-16T10:34:39Z</time>
      </trkpt>
      <trkpt lat="46.73651" lon="2.50593">
        <ele>176</ele>
        <time>2018-04-16T10:34:41Z</time>
      </trkpt>
      <trkpt lat="46.73651" lon="2.50593">
        <ele>176</ele>
        <time>2018-04-16T10:34:42Z</time>
      </trkpt>
      <trkpt lat="46.73651" lon="2.50593">
        <ele>176</ele>
        <time>2018-04-16T10:34:43Z</time>
      </trkpt>
      <trkpt lat="46.73651" lon="2.50592">
        <ele>176</ele>
        <time>2018-04-16T10:34:44Z</time>
      </trkpt>
      <trkpt lat="46.7366" lon="2.50543">
        <ele>175</ele>
        <time>2018-04-16T10:34:57Z</time>
      </trkpt>
      <trkpt lat="46.73661" lon="2.50533">
        <ele>175</ele>
        <time>2018-04-16T10:34:59Z</time>
      </trkpt>
      <trkpt lat="46.73662" lon="2.50528">
        <ele>175</ele>
        <time>2018-04-16T10:35:00Z</time>
      </trkpt>
      <trkpt lat="46.73663" lon="2.50523">
        <ele>175</ele>
        <time>2018-04-16T10:35:01Z</time>
      </trkpt>
      <trkpt lat="46.73664" lon="2.50518">
        <ele>175</ele>
        <time>2018-04-16T10:35:02Z</time>
      </trkpt>
      <trkpt lat="46.73665" lon="2.50513">
        <ele>175</ele>
        <time>2018-04-16T10:35:03Z</time>
      </trkpt>
      <trkpt lat="46.73666" lon="2.50508">
        <ele>175</ele>
        <time>2018-04-16T10:35:04Z</time>
      </trkpt>
      <trkpt lat="46.73667" lon="2.50496">
        <ele>175</ele>
        <time>2018-04-16T10:35:06Z</time>
      </trkpt>
      <trkpt lat="46.73671" lon="2.50467">
        <ele>177</ele>
        <time>2018-04-16T10:35:11Z</time>
      </trkpt>
      <trkpt lat="46.73675" lon="2.50444">
        <ele>177</ele>
        <time>2018-04-16T10:35:15Z</time>
      </trkpt>
      <trkpt lat="46.73677" lon="2.50362">
        <ele>176</ele>
        <time>2018-04-16T10:35:27Z</time>
      </trkpt>
      <trkpt lat="46.73672" lon="2.50317">
        <ele>176</ele>
        <time>2018-04-16T10:35:33Z</time>
      </trkpt>
      <trkpt lat="46.73664" lon="2.50253">
        <ele>174</ele>
        <time>2018-04-16T10:35:41Z</time>
      </trkpt>
      <trkpt lat="46.73658" lon="2.50196">
        <ele>172</ele>
        <time>2018-04-16T10:35:48Z</time>
      </trkpt>
      <trkpt lat="46.73657" lon="2.50172">
        <ele>172</ele>
        <time>2018-04-16T10:35:51Z</time>
      </trkpt>
      <trkpt lat="46.73654" lon="2.50124">
        <ele>170</ele>
        <time>2018-04-16T10:35:57Z</time>
      </trkpt>
      <trkpt lat="46.73646" lon="2.50038">
        <ele>168</ele>
        <time>2018-04-16T10:36:07Z</time>
      </trkpt>
      <trkpt lat="46.73639" lon="2.49954">
        <ele>166</ele>
        <time>2018-04-16T10:36:16Z</time>
      </trkpt>
      <trkpt lat="46.73645" lon="2.49875">
        <ele>166</ele>
        <time>2018-04-16T10:36:25Z</time>
      </trkpt>
      <trkpt lat="46.73658" lon="2.49791">
        <ele>164</ele>
        <time>2018-04-16T10:36:35Z</time>
      </trkpt>
      <trkpt lat="46.7367" lon="2.49706">
        <ele>165</ele>
        <time>2018-04-16T10:36:45Z</time>
      </trkpt>
      <trkpt lat="46.73679" lon="2.49625">
        <ele>164</ele>
        <time>2018-04-16T10:36:55Z</time>
      </trkpt>
      <trkpt lat="46.73678" lon="2.49584">
        <ele>163</ele>
        <time>2018-04-16T10:37:00Z</time>
      </trkpt>
      <trkpt lat="46.73674" lon="2.49498">
        <ele>160</ele>
        <time>2018-04-16T10:37:10Z</time>
      </trkpt>
      <trkpt lat="46.73669" lon="2.49419">
        <ele>158</ele>
        <time>2018-04-16T10:37:19Z</time>
      </trkpt>
      <trkpt lat="46.73649" lon="2.49345">
        <ele>158</ele>
        <time>2018-04-16T10:37:28Z</time>
      </trkpt>
      <trkpt lat="46.73619" lon="2.49275">
        <ele>158</ele>
        <time>2018-04-16T10:37:37Z</time>
      </trkpt>
      <trkpt lat="46.736" lon="2.4923">
        <ele>158</ele>
        <time>2018-04-16T10:37:43Z</time>
      </trkpt>
      <trkpt lat="46.73578" lon="2.49176">
        <ele>158</ele>
        <time>2018-04-16T10:37:51Z</time>
      </trkpt>
      <trkpt lat="46.7357" lon="2.49156">
        <ele>158</ele>
        <time>2018-04-16T10:37:54Z</time>
      </trkpt>
      <trkpt lat="46.73566" lon="2.49141">
        <ele>158</ele>
        <time>2018-04-16T10:37:57Z</time>
      </trkpt>
      <trkpt lat="46.73563" lon="2.49138">
        <ele>158</ele>
        <time>2018-04-16T10:38:00Z</time>
      </trkpt>
      <trkpt lat="46.73564" lon="2.49138">
        <ele>158</ele>
        <time>2018-04-16T10:38:09Z</time>
      </trkpt>
      <trkpt lat="46.73564" lon="2.49138">
        <ele>158</ele>
        <time>2018-04-16T10:38:10Z</time>
      </trkpt>
      <trkpt lat="46.73564" lon="2.49138">
        <ele>158</ele>
        <time>2018-04-16T10:38:11Z</time>
      </trkpt>
      <trkpt lat="46.73564" lon="2.49139">
        <ele>158</ele>
        <time>2018-04-16T10:38:21Z</time>
      </trkpt>
      <trkpt lat="46.73564" lon="2.49139">
        <ele>158</ele>
        <time>2018-04-16T10:38:37Z</time>
      </trkpt>
      <trkpt lat="46.73564" lon="2.49139">
        <ele>158</ele>
        <time>2018-04-16T10:38:39Z</time>
      </trkpt>
      <trkpt lat="46.73564" lon="2.49139">
        <ele>158</ele>
        <time>2018-04-16T10:38:44Z</time>
      </trkpt>
      <trkpt lat="46.73564" lon="2.49139">
        <ele>158</ele>
        <time>2018-04-16T10:38:48Z</time>
      </trkpt>
      <trkpt lat="46.73564" lon="2.49139">
        <ele>158</ele>
        <time>2018-04-16T10:38:51Z</time>
      </trkpt>
      <trkpt lat="46.73564" lon="2.49139">
        <ele>158</ele>
        <time>2018-04-16T10:38:55Z</time>
      </trkpt>
      <trkpt lat="46.73564" lon="2.49139">
        <ele>158</ele>
        <time>2018-04-16T10:38:59Z</time>
      </trkpt>
      <trkpt lat="46.73564" lon="2.49139">
        <ele>158</ele>
        <time>2018-04-16T10:39:02Z</time>
      </trkpt>
      <trkpt lat="46.73564" lon="2.49137">
        <ele>158</ele>
        <time>2018-04-16T10:39:06Z</time>
      </trkpt>
      <trkpt lat="46.73563" lon="2.49133">
        <ele>157</ele>
        <time>2018-04-16T10:39:08Z</time>
      </trkpt>
      <trkpt lat="46.73549" lon="2.49107">
        <ele>157</ele>
        <time>2018-04-16T10:39:16Z</time>
      </trkpt>
      <trkpt lat="46.73539" lon="2.49085">
        <ele>157</ele>
        <time>2018-04-16T10:39:20Z</time>
      </trkpt>
      <trkpt lat="46.73535" lon="2.49073">
        <ele>156</ele>
        <time>2018-04-16T10:39:22Z</time>
      </trkpt>
      <trkpt lat="46.73528" lon="2.49045">
        <ele>155</ele>
        <time>2018-04-16T10:39:27Z</time>
      </trkpt>
      <trkpt lat="46.73529" lon="2.49027">
        <ele>155</ele>
        <time>2018-04-16T10:39:30Z</time>
      </trkpt>
      <trkpt lat="46.73527" lon="2.49015">
        <ele>155</ele>
        <time>2018-04-16T10:39:32Z</time>
      </trkpt>
      <trkpt lat="46.73521" lon="2.49005">
        <ele>154</ele>
        <time>2018-04-16T10:39:34Z</time>
      </trkpt>
      <trkpt lat="46.73509" lon="2.48997">
        <ele>153</ele>
        <time>2018-04-16T10:39:37Z</time>
      </trkpt>
      <trkpt lat="46.73494" lon="2.4898">
        <ele>151</ele>
        <time>2018-04-16T10:39:41Z</time>
      </trkpt>
      <trkpt lat="46.73482" lon="2.48956">
        <ele>151</ele>
        <time>2018-04-16T10:39:45Z</time>
      </trkpt>
      <trkpt lat="46.73451" lon="2.48884">
        <ele>149</ele>
        <time>2018-04-16T10:39:54Z</time>
      </trkpt>
      <trkpt lat="46.73434" lon="2.4884">
        <ele>149</ele>
        <time>2018-04-16T10:40:01Z</time>
      </trkpt>
      <trkpt lat="46.73471" lon="2.48788">
        <ele>150</ele>
        <time>2018-04-16T10:40:16Z</time>
      </trkpt>
      <trkpt lat="46.73522" lon="2.48748">
        <ele>151</ele>
        <time>2018-04-16T10:40:30Z</time>
      </trkpt>
      <trkpt lat="46.73542" lon="2.48716">
        <ele>151</ele>
        <time>2018-04-16T10:40:37Z</time>
      </trkpt>
      <trkpt lat="46.73547" lon="2.48707">
        <ele>151</ele>
        <time>2018-04-16T10:40:39Z</time>
      </trkpt>
      <trkpt lat="46.73555" lon="2.48696">
        <ele>151</ele>
        <time>2018-04-16T10:40:42Z</time>
      </trkpt>
      <trkpt lat="46.73559" lon="2.4869">
        <ele>151</ele>
        <time>2018-04-16T10:40:44Z</time>
      </trkpt>
      <trkpt lat="46.73564" lon="2.48684">
        <ele>151</ele>
        <time>2018-04-16T10:40:46Z</time>
      </trkpt>
      <trkpt lat="46.73566" lon="2.48681">
        <ele>151</ele>
        <time>2018-04-16T10:40:47Z</time>
      </trkpt>
      <trkpt lat="46.73568" lon="2.48679">
        <ele>151</ele>
        <time>2018-04-16T10:40:48Z</time>
      </trkpt>
      <trkpt lat="46.73571" lon="2.48674">
        <ele>152</ele>
        <time>2018-04-16T10:40:50Z</time>
      </trkpt>
      <trkpt lat="46.73573" lon="2.48672">
        <ele>152</ele>
        <time>2018-04-16T10:40:51Z</time>
      </trkpt>
      <trkpt lat="46.73576" lon="2.48668">
        <ele>152</ele>
        <time>2018-04-16T10:40:53Z</time>
      </trkpt>
      <trkpt lat="46.73578" lon="2.48665">
        <ele>151</ele>
        <time>2018-04-16T10:40:54Z</time>
      </trkpt>
      <trkpt lat="46.7358" lon="2.48663">
        <ele>151</ele>
        <time>2018-04-16T10:40:55Z</time>
      </trkpt>
      <trkpt lat="46.73582" lon="2.48661">
        <ele>151</ele>
        <time>2018-04-16T10:40:56Z</time>
      </trkpt>
      <trkpt lat="46.73583" lon="2.48658">
        <ele>151</ele>
        <time>2018-04-16T10:40:57Z</time>
      </trkpt>
      <trkpt lat="46.73604" lon="2.48628">
        <ele>150</ele>
        <time>2018-04-16T10:41:06Z</time>
      </trkpt>
      <trkpt lat="46.73607" lon="2.48624">
        <ele>150</ele>
        <time>2018-04-16T10:41:07Z</time>
      </trkpt>
      <trkpt lat="46.73612" lon="2.48616">
        <ele>150</ele>
        <time>2018-04-16T10:41:09Z</time>
      </trkpt>
      <trkpt lat="46.73621" lon="2.48601">
        <ele>150</ele>
        <time>2018-04-16T10:41:13Z</time>
      </trkpt>
      <trkpt lat="46.73625" lon="2.48582">
        <ele>150</ele>
        <time>2018-04-16T10:41:17Z</time>
      </trkpt>
      <trkpt lat="46.73629" lon="2.48566">
        <ele>150</ele>
        <time>2018-04-16T10:41:20Z</time>
      </trkpt>
      <trkpt lat="46.73631" lon="2.48549">
        <ele>150</ele>
        <time>2018-04-16T10:41:23Z</time>
      </trkpt>
      <trkpt lat="46.73634" lon="2.48538">
        <ele>150</ele>
        <time>2018-04-16T10:41:25Z</time>
      </trkpt>
      <trkpt lat="46.73635" lon="2.48532">
        <ele>150</ele>
        <time>2018-04-16T10:41:26Z</time>
      </trkpt>
      <trkpt lat="46.73638" lon="2.4852">
        <ele>150</ele>
        <time>2018-04-16T10:41:28Z</time>
      </trkpt>
      <trkpt lat="46.73649" lon="2.4848">
        <ele>151</ele>
        <time>2018-04-16T10:41:35Z</time>
      </trkpt>
      <trkpt lat="46.7366" lon="2.48446">
        <ele>151</ele>
        <time>2018-04-16T10:41:41Z</time>
      </trkpt>
      <trkpt lat="46.73662" lon="2.4844">
        <ele>151</ele>
        <time>2018-04-16T10:41:42Z</time>
      </trkpt>
      <trkpt lat="46.73664" lon="2.48435">
        <ele>152</ele>
        <time>2018-04-16T10:41:43Z</time>
      </trkpt>
      <trkpt lat="46.73675" lon="2.48394">
        <ele>152</ele>
        <time>2018-04-16T10:41:50Z</time>
      </trkpt>
      <trkpt lat="46.73684" lon="2.48367">
        <ele>150</ele>
        <time>2018-04-16T10:41:55Z</time>
      </trkpt>
      <trkpt lat="46.73707" lon="2.48303">
        <ele>149</ele>
        <time>2018-04-16T10:42:06Z</time>
      </trkpt>
      <trkpt lat="46.73713" lon="2.48263">
        <ele>149</ele>
        <time>2018-04-16T10:42:12Z</time>
      </trkpt>
      <trkpt lat="46.73716" lon="2.48245">
        <ele>149</ele>
        <time>2018-04-16T10:42:15Z</time>
      </trkpt>
      <trkpt lat="46.73719" lon="2.48233">
        <ele>149</ele>
        <time>2018-04-16T10:42:17Z</time>
      </trkpt>
      <trkpt lat="46.73722" lon="2.48215">
        <ele>149</ele>
        <time>2018-04-16T10:42:20Z</time>
      </trkpt>
      <trkpt lat="46.73726" lon="2.48198">
        <ele>149</ele>
        <time>2018-04-16T10:42:23Z</time>
      </trkpt>
      <trkpt lat="46.73743" lon="2.48145">
        <ele>150</ele>
        <time>2018-04-16T10:42:35Z</time>
      </trkpt>
      <trkpt lat="46.73774" lon="2.48133">
        <ele>152</ele>
        <time>2018-04-16T10:42:55Z</time>
      </trkpt>
      <trkpt lat="46.73775" lon="2.4813">
        <ele>152</ele>
        <time>2018-04-16T10:42:56Z</time>
      </trkpt>
      <trkpt lat="46.73782" lon="2.48123">
        <ele>152</ele>
        <time>2018-04-16T10:43:00Z</time>
      </trkpt>
      <trkpt lat="46.73786" lon="2.48133">
        <ele>152</ele>
        <time>2018-04-16T10:43:04Z</time>
      </trkpt>
      <trkpt lat="46.73788" lon="2.48134">
        <ele>152</ele>
        <time>2018-04-16T10:43:05Z</time>
      </trkpt>
      <trkpt lat="46.73831" lon="2.48144">
        <ele>152</ele>
        <time>2018-04-16T10:43:21Z</time>
      </trkpt>
      <trkpt lat="46.73837" lon="2.4812">
        <ele>153</ele>
        <time>2018-04-16T10:43:28Z</time>
      </trkpt>
      <trkpt lat="46.73832" lon="2.48105">
        <ele>153</ele>
        <time>2018-04-16T10:43:33Z</time>
      </trkpt>
      <trkpt lat="46.73837" lon="2.48082">
        <ele>153</ele>
        <time>2018-04-16T10:43:40Z</time>
      </trkpt>
      <trkpt lat="46.73887" lon="2.48053">
        <ele>153</ele>
        <time>2018-04-16T10:44:00Z</time>
      </trkpt>
      <trkpt lat="46.7389" lon="2.48044">
        <ele>153</ele>
        <time>2018-04-16T10:44:02Z</time>
      </trkpt>
      <trkpt lat="46.73901" lon="2.4802">
        <ele>152</ele>
        <time>2018-04-16T10:44:08Z</time>
      </trkpt>
      <trkpt lat="46.73904" lon="2.48011">
        <ele>152</ele>
        <time>2018-04-16T10:44:10Z</time>
      </trkpt>
      <trkpt lat="46.7391" lon="2.47999">
        <ele>151</ele>
        <time>2018-04-16T10:44:13Z</time>
      </trkpt>
      <trkpt lat="46.73914" lon="2.4799">
        <ele>151</ele>
        <time>2018-04-16T10:44:15Z</time>
      </trkpt>
      <trkpt lat="46.73921" lon="2.47978">
        <ele>152</ele>
        <time>2018-04-16T10:44:18Z</time>
      </trkpt>
      <trkpt lat="46.73925" lon="2.4797">
        <ele>153</ele>
        <time>2018-04-16T10:44:20Z</time>
      </trkpt>
      <trkpt lat="46.73954" lon="2.47902">
        <ele>153</ele>
        <time>2018-04-16T10:44:37Z</time>
      </trkpt>
      <trkpt lat="46.73957" lon="2.47893">
        <ele>153</ele>
        <time>2018-04-16T10:44:39Z</time>
      </trkpt>
      <trkpt lat="46.73962" lon="2.4788">
        <ele>153</ele>
        <time>2018-04-16T10:44:42Z</time>
      </trkpt>
      <trkpt lat="46.73977" lon="2.47846">
        <ele>152</ele>
        <time>2018-04-16T10:44:51Z</time>
      </trkpt>
      <trkpt lat="46.74007" lon="2.47779">
        <ele>153</ele>
        <time>2018-04-16T10:45:06Z</time>
      </trkpt>
      <trkpt lat="46.74036" lon="2.47712">
        <ele>153</ele>
        <time>2018-04-16T10:45:21Z</time>
      </trkpt>
      <trkpt lat="46.74067" lon="2.47645">
        <ele>153</ele>
        <time>2018-04-16T10:45:35Z</time>
      </trkpt>
      <trkpt lat="46.74099" lon="2.47577">
        <ele>156</ele>
        <time>2018-04-16T10:45:50Z</time>
      </trkpt>
      <trkpt lat="46.74109" lon="2.47554">
        <ele>157</ele>
        <time>2018-04-16T10:45:55Z</time>
      </trkpt>
      <trkpt lat="46.74119" lon="2.47532">
        <ele>158</ele>
        <time>2018-04-16T10:46:00Z</time>
      </trkpt>
      <trkpt lat="46.74125" lon="2.47518">
        <ele>158</ele>
        <time>2018-04-16T10:46:03Z</time>
      </trkpt>
      <trkpt lat="46.74155" lon="2.47451">
        <ele>159</ele>
        <time>2018-04-16T10:46:18Z</time>
      </trkpt>
      <trkpt lat="46.74173" lon="2.47397">
        <ele>166</ele>
        <time>2018-04-16T10:46:29Z</time>
      </trkpt>
      <trkpt lat="46.74174" lon="2.47392">
        <ele>167</ele>
        <time>2018-04-16T10:46:30Z</time>
      </trkpt>
      <trkpt lat="46.74186" lon="2.47314">
        <ele>165</ele>
        <time>2018-04-16T10:46:45Z</time>
      </trkpt>
      <trkpt lat="46.74192" lon="2.47289">
        <ele>166</ele>
        <time>2018-04-16T10:46:50Z</time>
      </trkpt>
      <trkpt lat="46.742" lon="2.47255">
        <ele>166</ele>
        <time>2018-04-16T10:46:58Z</time>
      </trkpt>
      <trkpt lat="46.74226" lon="2.47184">
        <ele>164</ele>
        <time>2018-04-16T10:47:17Z</time>
      </trkpt>
      <trkpt lat="46.74255" lon="2.4712">
        <ele>170</ele>
        <time>2018-04-16T10:47:31Z</time>
      </trkpt>
      <trkpt lat="46.74271" lon="2.47086">
        <ele>168</ele>
        <time>2018-04-16T10:47:38Z</time>
      </trkpt>
      <trkpt lat="46.74273" lon="2.47081">
        <ele>164</ele>
        <time>2018-04-16T10:47:39Z</time>
      </trkpt>
      <trkpt lat="46.74295" lon="2.47029">
        <ele>165</ele>
        <time>2018-04-16T10:47:50Z</time>
      </trkpt>
      <trkpt lat="46.74305" lon="2.47006">
        <ele>165</ele>
        <time>2018-04-16T10:47:55Z</time>
      </trkpt>
      <trkpt lat="46.74308" lon="2.47002">
        <ele>165</ele>
        <time>2018-04-16T10:47:56Z</time>
      </trkpt>
      <trkpt lat="46.7431" lon="2.46998">
        <ele>161</ele>
        <time>2018-04-16T10:47:57Z</time>
      </trkpt>
      <trkpt lat="46.74326" lon="2.46939">
        <ele>159</ele>
        <time>2018-04-16T10:48:09Z</time>
      </trkpt>
      <trkpt lat="46.74337" lon="2.46915">
        <ele>160</ele>
        <time>2018-04-16T10:48:16Z</time>
      </trkpt>
      <trkpt lat="46.74349" lon="2.46908">
        <ele>162</ele>
        <time>2018-04-16T10:48:25Z</time>
      </trkpt>
      <trkpt lat="46.74373" lon="2.46871">
        <ele>163</ele>
        <time>2018-04-16T10:48:57Z</time>
      </trkpt>
      <trkpt lat="46.74373" lon="2.46871">
        <ele>163</ele>
        <time>2018-04-16T10:49:05Z</time>
      </trkpt>
      <trkpt lat="46.74373" lon="2.46872">
        <ele>163</ele>
        <time>2018-04-16T10:49:12Z</time>
      </trkpt>
      <trkpt lat="46.74373" lon="2.46873">
        <ele>163</ele>
        <time>2018-04-16T10:49:20Z</time>
      </trkpt>
      <trkpt lat="46.74373" lon="2.46873">
        <ele>163</ele>
        <time>2018-04-16T10:49:27Z</time>
      </trkpt>
      <trkpt lat="46.74373" lon="2.46873">
        <ele>163</ele>
        <time>2018-04-16T10:49:32Z</time>
      </trkpt>
      <trkpt lat="46.74373" lon="2.46873">
        <ele>163</ele>
        <time>2018-04-16T10:49:39Z</time>
      </trkpt>
      <trkpt lat="46.74373" lon="2.46873">
        <ele>163</ele>
        <time>2018-04-16T10:49:45Z</time>
      </trkpt>
      <trkpt lat="46.74373" lon="2.46873">
        <ele>163</ele>
        <time>2018-04-16T10:49:46Z</time>
      </trkpt>
      <trkpt lat="46.74374" lon="2.4687">
        <ele>163</ele>
        <time>2018-04-16T10:49:53Z</time>
      </trkpt>
      <trkpt lat="46.74389" lon="2.46832">
        <ele>160</ele>
        <time>2018-04-16T10:50:03Z</time>
      </trkpt>
      <trkpt lat="46.74404" lon="2.46779">
        <ele>158</ele>
        <time>2018-04-16T10:50:12Z</time>
      </trkpt>
      <trkpt lat="46.74411" lon="2.46752">
        <ele>158</ele>
        <time>2018-04-16T10:50:16Z</time>
      </trkpt>
      <trkpt lat="46.74428" lon="2.46684">
        <ele>159</ele>
        <time>2018-04-16T10:50:26Z</time>
      </trkpt>
      <trkpt lat="46.74433" lon="2.46664">
        <ele>157</ele>
        <time>2018-04-16T10:50:29Z</time>
      </trkpt>
      <trkpt lat="46.74435" lon="2.46657">
        <ele>157</ele>
        <time>2018-04-16T10:50:30Z</time>
      </trkpt>
      <trkpt lat="46.74437" lon="2.4665">
        <ele>158</ele>
        <time>2018-04-16T10:50:31Z</time>
      </trkpt>
      <trkpt lat="46.74439" lon="2.46642">
        <ele>158</ele>
        <time>2018-04-16T10:50:32Z</time>
      </trkpt>
      <trkpt lat="46.74441" lon="2.46634">
        <ele>158</ele>
        <time>2018-04-16T10:50:33Z</time>
      </trkpt>
      <trkpt lat="46.74443" lon="2.46626">
        <ele>158</ele>
        <time>2018-04-16T10:50:34Z</time>
      </trkpt>
      <trkpt lat="46.74445" lon="2.46618">
        <ele>158</ele>
        <time>2018-04-16T10:50:35Z</time>
      </trkpt>
      <trkpt lat="46.74447" lon="2.46609">
        <ele>158</ele>
        <time>2018-04-16T10:50:36Z</time>
      </trkpt>
      <trkpt lat="46.74457" lon="2.46567">
        <ele>158</ele>
        <time>2018-04-16T10:50:41Z</time>
      </trkpt>
      <trkpt lat="46.74463" lon="2.46545">
        <ele>158</ele>
        <time>2018-04-16T10:50:44Z</time>
      </trkpt>
      <trkpt lat="46.74466" lon="2.46531">
        <ele>158</ele>
        <time>2018-04-16T10:50:46Z</time>
      </trkpt>
      <trkpt lat="46.74487" lon="2.46453">
        <ele>159</ele>
        <time>2018-04-16T10:50:59Z</time>
      </trkpt>
      <trkpt lat="46.74492" lon="2.46437">
        <ele>159</ele>
        <time>2018-04-16T10:51:02Z</time>
      </trkpt>
      <trkpt lat="46.745" lon="2.4641">
        <ele>159</ele>
        <time>2018-04-16T10:51:07Z</time>
      </trkpt>
      <trkpt lat="46.74516" lon="2.4633">
        <ele>161</ele>
        <time>2018-04-16T10:51:21Z</time>
      </trkpt>
      <trkpt lat="46.74542" lon="2.46259">
        <ele>163</ele>
        <time>2018-04-16T10:51:35Z</time>
      </trkpt>
      <trkpt lat="46.74572" lon="2.46187">
        <ele>160</ele>
        <time>2018-04-16T10:51:48Z</time>
      </trkpt>
      <trkpt lat="46.74581" lon="2.46159">
        <ele>159</ele>
        <time>2018-04-16T10:51:52Z</time>
      </trkpt>
      <trkpt lat="46.74582" lon="2.46152">
        <ele>158</ele>
        <time>2018-04-16T10:51:53Z</time>
      </trkpt>
      <trkpt lat="46.74584" lon="2.46144">
        <ele>162</ele>
        <time>2018-04-16T10:51:54Z</time>
      </trkpt>
      <trkpt lat="46.74602" lon="2.46063">
        <ele>160</ele>
        <time>2018-04-16T10:52:04Z</time>
      </trkpt>
      <trkpt lat="46.74609" lon="2.45983">
        <ele>157</ele>
        <time>2018-04-16T10:52:14Z</time>
      </trkpt>
      <trkpt lat="46.74605" lon="2.45924">
        <ele>155</ele>
        <time>2018-04-16T10:52:26Z</time>
      </trkpt>
      <trkpt lat="46.74598" lon="2.45863">
        <ele>153</ele>
        <time>2018-04-16T10:52:37Z</time>
      </trkpt>
      <trkpt lat="46.74574" lon="2.45789">
        <ele>150</ele>
        <time>2018-04-16T10:52:49Z</time>
      </trkpt>
      <trkpt lat="46.74552" lon="2.45758">
        <ele>150</ele>
        <time>2018-04-16T10:52:56Z</time>
      </trkpt>
      <trkpt lat="46.74535" lon="2.45748">
        <ele>150</ele>
        <time>2018-04-16T10:53:01Z</time>
      </trkpt>
      <trkpt lat="46.74522" lon="2.45741">
        <ele>151</ele>
        <time>2018-04-16T10:53:05Z</time>
      </trkpt>
      <trkpt lat="46.74519" lon="2.45738">
        <ele>151</ele>
        <time>2018-04-16T10:53:06Z</time>
      </trkpt>
      <trkpt lat="46.74516" lon="2.45735">
        <ele>151</ele>
        <time>2018-04-16T10:53:07Z</time>
      </trkpt>
      <trkpt lat="46.74513" lon="2.45731">
        <ele>151</ele>
        <time>2018-04-16T10:53:08Z</time>
      </trkpt>
      <trkpt lat="46.74507" lon="2.45724">
        <ele>151</ele>
        <time>2018-04-16T10:53:10Z</time>
      </trkpt>
      <trkpt lat="46.74504" lon="2.4572">
        <ele>151</ele>
        <time>2018-04-16T10:53:11Z</time>
      </trkpt>
      <trkpt lat="46.74502" lon="2.45717">
        <ele>151</ele>
        <time>2018-04-16T10:53:12Z</time>
      </trkpt>
      <trkpt lat="46.74494" lon="2.45704">
        <ele>150</ele>
        <time>2018-04-16T10:53:15Z</time>
      </trkpt>
      <trkpt lat="46.74483" lon="2.45687">
        <ele>150</ele>
        <time>2018-04-16T10:53:19Z</time>
      </trkpt>
      <trkpt lat="46.74459" lon="2.45652">
        <ele>149</ele>
        <time>2018-04-16T10:53:27Z</time>
      </trkpt>
      <trkpt lat="46.74453" lon="2.45643">
        <ele>149</ele>
        <time>2018-04-16T10:53:29Z</time>
      </trkpt>
      <trkpt lat="46.7445" lon="2.45638">
        <ele>149</ele>
        <time>2018-04-16T10:53:30Z</time>
      </trkpt>
      <trkpt lat="46.74438" lon="2.4562">
        <ele>149</ele>
        <time>2018-04-16T10:53:34Z</time>
      </trkpt>
      <trkpt lat="46.74432" lon="2.45611">
        <ele>149</ele>
        <time>2018-04-16T10:53:36Z</time>
      </trkpt>
      <trkpt lat="46.74422" lon="2.45596">
        <ele>149</ele>
        <time>2018-04-16T10:53:39Z</time>
      </trkpt>
      <trkpt lat="46.7441" lon="2.45578">
        <ele>149</ele>
        <time>2018-04-16T10:53:43Z</time>
      </trkpt>
      <trkpt lat="46.74406" lon="2.45573">
        <ele>149</ele>
        <time>2018-04-16T10:53:44Z</time>
      </trkpt>
      <trkpt lat="46.74403" lon="2.45568">
        <ele>149</ele>
        <time>2018-04-16T10:53:45Z</time>
      </trkpt>
      <trkpt lat="46.744" lon="2.45564">
        <ele>149</ele>
        <time>2018-04-16T10:53:46Z</time>
      </trkpt>
      <trkpt lat="46.74394" lon="2.45555">
        <ele>149</ele>
        <time>2018-04-16T10:53:48Z</time>
      </trkpt>
      <trkpt lat="46.74383" lon="2.45537">
        <ele>148</ele>
        <time>2018-04-16T10:53:52Z</time>
      </trkpt>
      <trkpt lat="46.74365" lon="2.45508">
        <ele>148</ele>
        <time>2018-04-16T10:53:58Z</time>
      </trkpt>
      <trkpt lat="46.74335" lon="2.4546">
        <ele>149</ele>
        <time>2018-04-16T10:54:08Z</time>
      </trkpt>
      <trkpt lat="46.74319" lon="2.45436">
        <ele>149</ele>
        <time>2018-04-16T10:54:13Z</time>
      </trkpt>
      <trkpt lat="46.74286" lon="2.45388">
        <ele>150</ele>
        <time>2018-04-16T10:54:23Z</time>
      </trkpt>
      <trkpt lat="46.74282" lon="2.45383">
        <ele>150</ele>
        <time>2018-04-16T10:54:24Z</time>
      </trkpt>
      <trkpt lat="46.74245" lon="2.45326">
        <ele>151</ele>
        <time>2018-04-16T10:54:35Z</time>
      </trkpt>
      <trkpt lat="46.74209" lon="2.45264">
        <ele>150</ele>
        <time>2018-04-16T10:54:47Z</time>
      </trkpt>
      <trkpt lat="46.74181" lon="2.45223">
        <ele>150</ele>
        <time>2018-04-16T10:54:56Z</time>
      </trkpt>
      <trkpt lat="46.74153" lon="2.45151">
        <ele>149</ele>
        <time>2018-04-16T10:55:08Z</time>
      </trkpt>
      <trkpt lat="46.74151" lon="2.45145">
        <ele>149</ele>
        <time>2018-04-16T10:55:09Z</time>
      </trkpt>
      <trkpt lat="46.74146" lon="2.45128">
        <ele>149</ele>
        <time>2018-04-16T10:55:12Z</time>
      </trkpt>
      <trkpt lat="46.74123" lon="2.45051">
        <ele>149</ele>
        <time>2018-04-16T10:55:24Z</time>
      </trkpt>
      <trkpt lat="46.74093" lon="2.44979">
        <ele>150</ele>
        <time>2018-04-16T10:55:36Z</time>
      </trkpt>
      <trkpt lat="46.74052" lon="2.44926">
        <ele>150</ele>
        <time>2018-04-16T10:55:48Z</time>
      </trkpt>
      <trkpt lat="46.74048" lon="2.44921">
        <ele>150</ele>
        <time>2018-04-16T10:55:49Z</time>
      </trkpt>
      <trkpt lat="46.74047" lon="2.4491">
        <ele>150</ele>
        <time>2018-04-16T10:55:51Z</time>
      </trkpt>
      <trkpt lat="46.74052" lon="2.44899">
        <ele>150</ele>
        <time>2018-04-16T10:55:53Z</time>
      </trkpt>
      <trkpt lat="46.74098" lon="2.44849">
        <ele>151</ele>
        <time>2018-04-16T10:56:05Z</time>
      </trkpt>
      <trkpt lat="46.74139" lon="2.44794">
        <ele>151</ele>
        <time>2018-04-16T10:56:17Z</time>
      </trkpt>
      <trkpt lat="46.74176" lon="2.4473">
        <ele>149</ele>
        <time>2018-04-16T10:56:30Z</time>
      </trkpt>
      <trkpt lat="46.74197" lon="2.44674">
        <ele>148</ele>
        <time>2018-04-16T10:56:40Z</time>
      </trkpt>
      <trkpt lat="46.74206" lon="2.4465">
        <ele>148</ele>
        <time>2018-04-16T10:56:44Z</time>
      </trkpt>
      <trkpt lat="46.74212" lon="2.4464">
        <ele>148</ele>
        <time>2018-04-16T10:56:46Z</time>
      </trkpt>
      <trkpt lat="46.74237" lon="2.44615">
        <ele>149</ele>
        <time>2018-04-16T10:56:53Z</time>
      </trkpt>
      <trkpt lat="46.74274" lon="2.44579">
        <ele>149</ele>
        <time>2018-04-16T10:57:03Z</time>
      </trkpt>
      <trkpt lat="46.74307" lon="2.44515">
        <ele>149</ele>
        <time>2018-04-16T10:57:15Z</time>
      </trkpt>
      <trkpt lat="46.74333" lon="2.44451">
        <ele>148</ele>
        <time>2018-04-16T10:57:27Z</time>
      </trkpt>
      <trkpt lat="46.74339" lon="2.4444">
        <ele>148</ele>
        <time>2018-04-16T10:57:29Z</time>
      </trkpt>
      <trkpt lat="46.74361" lon="2.44414">
        <ele>147</ele>
        <time>2018-04-16T10:57:36Z</time>
      </trkpt>
      <trkpt lat="46.74365" lon="2.44413">
        <ele>147</ele>
        <time>2018-04-16T10:57:37Z</time>
      </trkpt>
      <trkpt lat="46.74373" lon="2.44416">
        <ele>148</ele>
        <time>2018-04-16T10:57:39Z</time>
      </trkpt>
      <trkpt lat="46.7438" lon="2.44425">
        <ele>149</ele>
        <time>2018-04-16T10:57:41Z</time>
      </trkpt>
      <trkpt lat="46.7439" lon="2.44438">
        <ele>149</ele>
        <time>2018-04-16T10:57:44Z</time>
      </trkpt>
      <trkpt lat="46.74431" lon="2.44491">
        <ele>151</ele>
        <time>2018-04-16T10:57:57Z</time>
      </trkpt>
      <trkpt lat="46.74437" lon="2.44492">
        <ele>151</ele>
        <time>2018-04-16T10:57:59Z</time>
      </trkpt>
      <trkpt lat="46.74454" lon="2.4447">
        <ele>150</ele>
        <time>2018-04-16T10:58:05Z</time>
      </trkpt>
      <trkpt lat="46.74497" lon="2.4442">
        <ele>152</ele>
        <time>2018-04-16T10:58:18Z</time>
      </trkpt>
      <trkpt lat="46.74501" lon="2.44418">
        <ele>152</ele>
        <time>2018-04-16T10:58:19Z</time>
      </trkpt>
      <trkpt lat="46.74553" lon="2.44424">
        <ele>150</ele>
        <time>2018-04-16T10:58:34Z</time>
      </trkpt>
      <trkpt lat="46.74591" lon="2.44366">
        <ele>149</ele>
        <time>2018-04-16T10:58:49Z</time>
      </trkpt>
      <trkpt lat="46.74627" lon="2.44305">
        <ele>149</ele>
        <time>2018-04-16T10:59:02Z</time>
      </trkpt>
      <trkpt lat="46.74642" lon="2.44282">
        <ele>148</ele>
        <time>2018-04-16T10:59:07Z</time>
      </trkpt>
      <trkpt lat="46.74657" lon="2.44204">
        <ele>147</ele>
        <time>2018-04-16T10:59:21Z</time>
      </trkpt>
      <trkpt lat="46.74662" lon="2.44181">
        <ele>146</ele>
        <time>2018-04-16T10:59:25Z</time>
      </trkpt>
      <trkpt lat="46.74662" lon="2.44169">
        <ele>146</ele>
        <time>2018-04-16T10:59:27Z</time>
      </trkpt>
      <trkpt lat="46.74663" lon="2.44158">
        <ele>147</ele>
        <time>2018-04-16T10:59:29Z</time>
      </trkpt>
      <trkpt lat="46.74664" lon="2.44142">
        <ele>147</ele>
        <time>2018-04-16T10:59:32Z</time>
      </trkpt>
      <trkpt lat="46.74669" lon="2.44061">
        <ele>151</ele>
        <time>2018-04-16T10:59:46Z</time>
      </trkpt>
      <trkpt lat="46.74707" lon="2.44025">
        <ele>151</ele>
        <time>2018-04-16T10:59:59Z</time>
      </trkpt>
      <trkpt lat="46.74756" lon="2.43982">
        <ele>150</ele>
        <time>2018-04-16T11:00:14Z</time>
      </trkpt>
      <trkpt lat="46.74805" lon="2.43944">
        <ele>148</ele>
        <time>2018-04-16T11:00:27Z</time>
      </trkpt>
      <trkpt lat="46.74855" lon="2.43902">
        <ele>147</ele>
        <time>2018-04-16T11:00:39Z</time>
      </trkpt>
      <trkpt lat="46.74872" lon="2.43889">
        <ele>146</ele>
        <time>2018-04-16T11:00:43Z</time>
      </trkpt>
      <trkpt lat="46.74882" lon="2.43886">
        <ele>146</ele>
        <time>2018-04-16T11:00:45Z</time>
      </trkpt>
      <trkpt lat="46.7489" lon="2.43887">
        <ele>147</ele>
        <time>2018-04-16T11:00:47Z</time>
      </trkpt>
      <trkpt lat="46.74943" lon="2.43911">
        <ele>149</ele>
        <time>2018-04-16T11:00:59Z</time>
      </trkpt>
      <trkpt lat="46.74997" lon="2.43934">
        <ele>152</ele>
        <time>2018-04-16T11:01:13Z</time>
      </trkpt>
      <trkpt lat="46.75019" lon="2.43941">
        <ele>159</ele>
        <time>2018-04-16T11:01:26Z</time>
      </trkpt>
      <trkpt lat="46.75017" lon="2.43911">
        <ele>157</ele>
        <time>2018-04-16T11:02:18Z</time>
      </trkpt>
      <trkpt lat="46.75018" lon="2.43906">
        <ele>158</ele>
        <time>2018-04-16T11:02:20Z</time>
      </trkpt>
      <trkpt lat="46.75019" lon="2.43903">
        <ele>158</ele>
        <time>2018-04-16T11:02:21Z</time>
      </trkpt>
      <trkpt lat="46.75024" lon="2.43883">
        <ele>159</ele>
        <time>2018-04-16T11:02:26Z</time>
      </trkpt>
      <trkpt lat="46.75025" lon="2.43879">
        <ele>159</ele>
        <time>2018-04-16T11:02:27Z</time>
      </trkpt>
      <trkpt lat="46.75027" lon="2.43867">
        <ele>160</ele>
        <time>2018-04-16T11:02:30Z</time>
      </trkpt>
      <trkpt lat="46.7504" lon="2.43812">
        <ele>160</ele>
        <time>2018-04-16T11:02:41Z</time>
      </trkpt>
      <trkpt lat="46.75057" lon="2.43737">
        <ele>161</ele>
        <time>2018-04-16T11:02:56Z</time>
      </trkpt>
      <trkpt lat="46.75073" lon="2.4366">
        <ele>161</ele>
        <time>2018-04-16T11:03:09Z</time>
      </trkpt>
      <trkpt lat="46.75085" lon="2.43581">
        <ele>163</ele>
        <time>2018-04-16T11:03:22Z</time>
      </trkpt>
      <trkpt lat="46.75094" lon="2.43501">
        <ele>164</ele>
        <time>2018-04-16T11:03:35Z</time>
      </trkpt>
      <trkpt lat="46.75115" lon="2.43423">
        <ele>167</ele>
        <time>2018-04-16T11:03:49Z</time>
      </trkpt>
      <trkpt lat="46.75135" lon="2.43343">
        <ele>166</ele>
        <time>2018-04-16T11:04:01Z</time>
      </trkpt>
      <trkpt lat="46.75157" lon="2.43268">
        <ele>165</ele>
        <time>2018-04-16T11:04:14Z</time>
      </trkpt>
      <trkpt lat="46.75173" lon="2.43206">
        <ele>172</ele>
        <time>2018-04-16T11:04:24Z</time>
      </trkpt>
      <trkpt lat="46.75179" lon="2.43184">
        <ele>170</ele>
        <time>2018-04-16T11:04:28Z</time>
      </trkpt>
      <trkpt lat="46.75197" lon="2.43105">
        <ele>168</ele>
        <time>2018-04-16T11:04:40Z</time>
      </trkpt>
      <trkpt lat="46.75207" lon="2.43054">
        <ele>166</ele>
        <time>2018-04-16T11:04:48Z</time>
      </trkpt>
      <trkpt lat="46.75216" lon="2.43004">
        <ele>166</ele>
        <time>2018-04-16T11:04:55Z</time>
      </trkpt>
      <trkpt lat="46.75236" lon="2.42923">
        <ele>163</ele>
        <time>2018-04-16T11:05:06Z</time>
      </trkpt>
      <trkpt lat="46.75259" lon="2.42844">
        <ele>160</ele>
        <time>2018-04-16T11:05:17Z</time>
      </trkpt>
      <trkpt lat="46.75292" lon="2.42777">
        <ele>159</ele>
        <time>2018-04-16T11:05:29Z</time>
      </trkpt>
      <trkpt lat="46.75299" lon="2.42768">
        <ele>160</ele>
        <time>2018-04-16T11:05:31Z</time>
      </trkpt>
      <trkpt lat="46.75343" lon="2.4272">
        <ele>160</ele>
        <time>2018-04-16T11:05:43Z</time>
      </trkpt>
      <trkpt lat="46.7539" lon="2.42674">
        <ele>158</ele>
        <time>2018-04-16T11:05:57Z</time>
      </trkpt>
      <trkpt lat="46.75446" lon="2.42658">
        <ele>154</ele>
        <time>2018-04-16T11:06:14Z</time>
      </trkpt>
      <trkpt lat="46.755" lon="2.42659">
        <ele>154</ele>
        <time>2018-04-16T11:06:32Z</time>
      </trkpt>
      <trkpt lat="46.75503" lon="2.42662">
        <ele>154</ele>
        <time>2018-04-16T11:06:43Z</time>
      </trkpt>
      <trkpt lat="46.75512" lon="2.42701">
        <ele>160</ele>
        <time>2018-04-16T11:07:15Z</time>
      </trkpt>
      <trkpt lat="46.7551" lon="2.42727">
        <ele>163</ele>
        <time>2018-04-16T11:07:29Z</time>
      </trkpt>
      <trkpt lat="46.7551" lon="2.42731">
        <ele>163</ele>
        <time>2018-04-16T11:07:31Z</time>
      </trkpt>
      <trkpt lat="46.7551" lon="2.42779">
        <ele>170</ele>
        <time>2018-04-16T11:07:53Z</time>
      </trkpt>
      <trkpt lat="46.7551" lon="2.42781">
        <ele>170</ele>
        <time>2018-04-16T11:07:54Z</time>
      </trkpt>
      <trkpt lat="46.75509" lon="2.4279">
        <ele>171</ele>
        <time>2018-04-16T11:07:58Z</time>
      </trkpt>
      <trkpt lat="46.75509" lon="2.42794">
        <ele>171</ele>
        <time>2018-04-16T11:08:00Z</time>
      </trkpt>
      <trkpt lat="46.75511" lon="2.42804">
        <ele>172</ele>
        <time>2018-04-16T11:08:06Z</time>
      </trkpt>
      <trkpt lat="46.75514" lon="2.42827">
        <ele>174</ele>
        <time>2018-04-16T11:08:18Z</time>
      </trkpt>
      <trkpt lat="46.75513" lon="2.42835">
        <ele>177</ele>
        <time>2018-04-16T11:08:23Z</time>
      </trkpt>
      <trkpt lat="46.75513" lon="2.42843">
        <ele>177</ele>
        <time>2018-04-16T11:08:27Z</time>
      </trkpt>
      <trkpt lat="46.75512" lon="2.42856">
        <ele>178</ele>
        <time>2018-04-16T11:08:35Z</time>
      </trkpt>
      <trkpt lat="46.75512" lon="2.42864">
        <ele>178</ele>
        <time>2018-04-16T11:08:39Z</time>
      </trkpt>
      <trkpt lat="46.75513" lon="2.42874">
        <ele>179</ele>
        <time>2018-04-16T11:08:45Z</time>
      </trkpt>
      <trkpt lat="46.75513" lon="2.42876">
        <ele>179</ele>
        <time>2018-04-16T11:08:46Z</time>
      </trkpt>
      <trkpt lat="46.75513" lon="2.42878">
        <ele>179</ele>
        <time>2018-04-16T11:08:47Z</time>
      </trkpt>
      <trkpt lat="46.75514" lon="2.42879">
        <ele>179</ele>
        <time>2018-04-16T11:08:48Z</time>
      </trkpt>
      <trkpt lat="46.75515" lon="2.42885">
        <ele>180</ele>
        <time>2018-04-16T11:08:51Z</time>
      </trkpt>
      <trkpt lat="46.75515" lon="2.42898">
        <ele>181</ele>
        <time>2018-04-16T11:08:59Z</time>
      </trkpt>
      <trkpt lat="46.75516" lon="2.42902">
        <ele>181</ele>
        <time>2018-04-16T11:09:01Z</time>
      </trkpt>
      <trkpt lat="46.75517" lon="2.42921">
        <ele>185</ele>
        <time>2018-04-16T11:09:11Z</time>
      </trkpt>
      <trkpt lat="46.75518" lon="2.42929">
        <ele>185</ele>
        <time>2018-04-16T11:09:15Z</time>
      </trkpt>
      <trkpt lat="46.75516" lon="2.42954">
        <ele>185</ele>
        <time>2018-04-16T11:09:32Z</time>
      </trkpt>
      <trkpt lat="46.75518" lon="2.42956">
        <ele>185</ele>
        <time>2018-04-16T11:09:46Z</time>
      </trkpt>
      <trkpt lat="46.75517" lon="2.42953">
        <ele>185</ele>
        <time>2018-04-16T11:09:53Z</time>
      </trkpt>
      <trkpt lat="46.75518" lon="2.42961">
        <ele>186</ele>
        <time>2018-04-16T11:10:28Z</time>
      </trkpt>
      <trkpt lat="46.75517" lon="2.42961">
        <ele>186</ele>
        <time>2018-04-16T11:10:30Z</time>
      </trkpt>
      <trkpt lat="46.75517" lon="2.42961">
        <ele>186</ele>
        <time>2018-04-16T11:10:31Z</time>
      </trkpt>
      <trkpt lat="46.75517" lon="2.42961">
        <ele>186</ele>
        <time>2018-04-16T11:10:37Z</time>
      </trkpt>
      <trkpt lat="46.75517" lon="2.42961">
        <ele>186</ele>
        <time>2018-04-16T11:10:41Z</time>
      </trkpt>
      <trkpt lat="46.75517" lon="2.42961">
        <ele>186</ele>
        <time>2018-04-16T11:10:46Z</time>
      </trkpt>
      <trkpt lat="46.75517" lon="2.42961">
        <ele>186</ele>
        <time>2018-04-16T11:10:47Z</time>
      </trkpt>
      <trkpt lat="46.75517" lon="2.4296">
        <ele>186</ele>
        <time>2018-04-16T11:10:48Z</time>
      </trkpt>
      <trkpt lat="46.75517" lon="2.42961">
        <ele>186</ele>
        <time>2018-04-16T11:10:49Z</time>
      </trkpt>
      <trkpt lat="46.75519" lon="2.4296">
        <ele>186</ele>
        <time>2018-04-16T11:11:16Z</time>
      </trkpt>
      <trkpt lat="46.7552" lon="2.4296">
        <ele>186</ele>
        <time>2018-04-16T11:11:17Z</time>
      </trkpt>
      <trkpt lat="46.75521" lon="2.42961">
        <ele>186</ele>
        <time>2018-04-16T11:11:30Z</time>
      </trkpt>
      <trkpt lat="46.75521" lon="2.42962">
        <ele>186</ele>
        <time>2018-04-16T11:11:31Z</time>
      </trkpt>
      <trkpt lat="46.75521" lon="2.42962">
        <ele>186</ele>
        <time>2018-04-16T11:11:32Z</time>
      </trkpt>
      <trkpt lat="46.75521" lon="2.42962">
        <ele>186</ele>
        <time>2018-04-16T11:11:37Z</time>
      </trkpt>
      <trkpt lat="46.75521" lon="2.42962">
        <ele>186</ele>
        <time>2018-04-16T11:11:38Z</time>
      </trkpt>
      <trkpt lat="46.75526" lon="2.4296">
        <ele>186</ele>
        <time>2018-04-16T11:11:47Z</time>
      </trkpt>
      <trkpt lat="46.75565" lon="2.42973">
        <ele>185</ele>
        <time>2018-04-16T11:12:03Z</time>
      </trkpt>
      <trkpt lat="46.75568" lon="2.42974">
        <ele>185</ele>
        <time>2018-04-16T11:12:04Z</time>
      </trkpt>
      <trkpt lat="46.75574" lon="2.42975">
        <ele>185</ele>
        <time>2018-04-16T11:12:06Z</time>
      </trkpt>
      <trkpt lat="46.75583" lon="2.42977">
        <ele>185</ele>
        <time>2018-04-16T11:12:09Z</time>
      </trkpt>
      <trkpt lat="46.75591" lon="2.42979">
        <ele>184</ele>
        <time>2018-04-16T11:12:12Z</time>
      </trkpt>
      <trkpt lat="46.75609" lon="2.42982">
        <ele>183</ele>
        <time>2018-04-16T11:12:18Z</time>
      </trkpt>
      <trkpt lat="46.75616" lon="2.42983">
        <ele>183</ele>
        <time>2018-04-16T11:12:20Z</time>
      </trkpt>
      <trkpt lat="46.7567" lon="2.42986">
        <ele>181</ele>
        <time>2018-04-16T11:12:36Z</time>
      </trkpt>
      <trkpt lat="46.75683" lon="2.42988">
        <ele>181</ele>
        <time>2018-04-16T11:12:40Z</time>
      </trkpt>
      <trkpt lat="46.75699" lon="2.42989">
        <ele>181</ele>
        <time>2018-04-16T11:12:45Z</time>
      </trkpt>
      <trkpt lat="46.75729" lon="2.42994">
        <ele>181</ele>
        <time>2018-04-16T11:12:54Z</time>
      </trkpt>
      <trkpt lat="46.75744" lon="2.42995">
        <ele>181</ele>
        <time>2018-04-16T11:13:01Z</time>
      </trkpt>
      <trkpt lat="46.75799" lon="2.43004">
        <ele>183</ele>
        <time>2018-04-16T11:13:28Z</time>
      </trkpt>
      <trkpt lat="46.75805" lon="2.43005">
        <ele>182</ele>
        <time>2018-04-16T11:13:30Z</time>
      </trkpt>
      <trkpt lat="46.75808" lon="2.43005">
        <ele>182</ele>
        <time>2018-04-16T11:13:31Z</time>
      </trkpt>
      <trkpt lat="46.75811" lon="2.43006">
        <ele>182</ele>
        <time>2018-04-16T11:13:32Z</time>
      </trkpt>
      <trkpt lat="46.75824" lon="2.43007">
        <ele>182</ele>
        <time>2018-04-16T11:13:37Z</time>
      </trkpt>
      <trkpt lat="46.75845" lon="2.43005">
        <ele>182</ele>
        <time>2018-04-16T11:13:45Z</time>
      </trkpt>
      <trkpt lat="46.75857" lon="2.43005">
        <ele>182</ele>
        <time>2018-04-16T11:13:49Z</time>
      </trkpt>
      <trkpt lat="46.75879" lon="2.4301">
        <ele>182</ele>
        <time>2018-04-16T11:13:57Z</time>
      </trkpt>
      <trkpt lat="46.75884" lon="2.43011">
        <ele>182</ele>
        <time>2018-04-16T11:13:59Z</time>
      </trkpt>
      <trkpt lat="46.75917" lon="2.43016">
        <ele>182</ele>
        <time>2018-04-16T11:14:10Z</time>
      </trkpt>
      <trkpt lat="46.75957" lon="2.43023">
        <ele>183</ele>
        <time>2018-04-16T11:14:23Z</time>
      </trkpt>
      <trkpt lat="46.75995" lon="2.43031">
        <ele>183</ele>
        <time>2018-04-16T11:14:35Z</time>
      </trkpt>
      <trkpt lat="46.75999" lon="2.43033">
        <ele>183</ele>
        <time>2018-04-16T11:14:37Z</time>
      </trkpt>
      <trkpt lat="46.76054" lon="2.4304">
        <ele>183</ele>
        <time>2018-04-16T11:14:56Z</time>
      </trkpt>
      <trkpt lat="46.76068" lon="2.43044">
        <ele>183</ele>
        <time>2018-04-16T11:15:01Z</time>
      </trkpt>
      <trkpt lat="46.76123" lon="2.43068">
        <ele>183</ele>
        <time>2018-04-16T11:15:19Z</time>
      </trkpt>
      <trkpt lat="46.76155" lon="2.43086">
        <ele>187</ele>
        <time>2018-04-16T11:15:29Z</time>
      </trkpt>
      <trkpt lat="46.76208" lon="2.43111">
        <ele>188</ele>
        <time>2018-04-16T11:15:45Z</time>
      </trkpt>
      <trkpt lat="46.76259" lon="2.43134">
        <ele>187</ele>
        <time>2018-04-16T11:16:02Z</time>
      </trkpt>
      <trkpt lat="46.76268" lon="2.43138">
        <ele>187</ele>
        <time>2018-04-16T11:16:05Z</time>
      </trkpt>
      <trkpt lat="46.76304" lon="2.43154">
        <ele>187</ele>
        <time>2018-04-16T11:16:16Z</time>
      </trkpt>
      <trkpt lat="46.76308" lon="2.43155">
        <ele>187</ele>
        <time>2018-04-16T11:16:17Z</time>
      </trkpt>
      <trkpt lat="46.76317" lon="2.43156">
        <ele>187</ele>
        <time>2018-04-16T11:16:20Z</time>
      </trkpt>
      <trkpt lat="46.76342" lon="2.43154">
        <ele>185</ele>
        <time>2018-04-16T11:16:29Z</time>
      </trkpt>
      <trkpt lat="46.76384" lon="2.43163">
        <ele>183</ele>
        <time>2018-04-16T11:16:40Z</time>
      </trkpt>
      <trkpt lat="46.76413" lon="2.43169">
        <ele>185</ele>
        <time>2018-04-16T11:16:53Z</time>
      </trkpt>
      <trkpt lat="46.76418" lon="2.4317">
        <ele>184</ele>
        <time>2018-04-16T11:17:06Z</time>
      </trkpt>
      <trkpt lat="46.76419" lon="2.43171">
        <ele>184</ele>
        <time>2018-04-16T11:17:38Z</time>
      </trkpt>
      <trkpt lat="46.76472" lon="2.43193">
        <ele>181</ele>
        <time>2018-04-16T11:17:57Z</time>
      </trkpt>
      <trkpt lat="46.765" lon="2.43205">
        <ele>177</ele>
        <time>2018-04-16T11:18:03Z</time>
      </trkpt>
      <trkpt lat="46.76524" lon="2.43235">
        <ele>177</ele>
        <time>2018-04-16T11:18:09Z</time>
      </trkpt>
      <trkpt lat="46.76532" lon="2.43241">
        <ele>177</ele>
        <time>2018-04-16T11:18:11Z</time>
      </trkpt>
      <trkpt lat="46.76553" lon="2.43253">
        <ele>178</ele>
        <time>2018-04-16T11:18:17Z</time>
      </trkpt>
      <trkpt lat="46.76564" lon="2.43261">
        <ele>178</ele>
        <time>2018-04-16T11:18:23Z</time>
      </trkpt>
      <trkpt lat="46.76566" lon="2.43261">
        <ele>177</ele>
        <time>2018-04-16T11:18:24Z</time>
      </trkpt>
      <trkpt lat="46.76584" lon="2.43244">
        <ele>174</ele>
        <time>2018-04-16T11:18:30Z</time>
      </trkpt>
      <trkpt lat="46.76609" lon="2.43215">
        <ele>171</ele>
        <time>2018-04-16T11:18:37Z</time>
      </trkpt>
      <trkpt lat="46.76627" lon="2.43201">
        <ele>170</ele>
        <time>2018-04-16T11:18:42Z</time>
      </trkpt>
      <trkpt lat="46.76639" lon="2.43198">
        <ele>170</ele>
        <time>2018-04-16T11:18:48Z</time>
      </trkpt>
      <trkpt lat="46.7667" lon="2.43187">
        <ele>167</ele>
        <time>2018-04-16T11:18:58Z</time>
      </trkpt>
      <trkpt lat="46.76683" lon="2.43177">
        <ele>167</ele>
        <time>2018-04-16T11:19:01Z</time>
      </trkpt>
      <trkpt lat="46.76687" lon="2.43173">
        <ele>167</ele>
        <time>2018-04-16T11:19:02Z</time>
      </trkpt>
      <trkpt lat="46.76699" lon="2.43163">
        <ele>163</ele>
        <time>2018-04-16T11:19:06Z</time>
      </trkpt>
      <trkpt lat="46.76701" lon="2.43161">
        <ele>163</ele>
        <time>2018-04-16T11:19:07Z</time>
      </trkpt>
      <trkpt lat="46.76703" lon="2.43159">
        <ele>163</ele>
        <time>2018-04-16T11:19:08Z</time>
      </trkpt>
      <trkpt lat="46.76703" lon="2.43158">
        <ele>163</ele>
        <time>2018-04-16T11:19:09Z</time>
      </trkpt>
      <trkpt lat="46.76703" lon="2.43159">
        <ele>163</ele>
        <time>2018-04-16T11:19:15Z</time>
      </trkpt>
      <trkpt lat="46.76704" lon="2.4316">
        <ele>163</ele>
        <time>2018-04-16T11:19:21Z</time>
      </trkpt>
      <trkpt lat="46.76704" lon="2.4316">
        <ele>163</ele>
        <time>2018-04-16T11:19:26Z</time>
      </trkpt>
      <trkpt lat="46.76704" lon="2.4316">
        <ele>163</ele>
        <time>2018-04-16T11:19:31Z</time>
      </trkpt>
      <trkpt lat="46.76704" lon="2.4316">
        <ele>163</ele>
        <time>2018-04-16T11:19:34Z</time>
      </trkpt>
      <trkpt lat="46.76704" lon="2.43159">
        <ele>163</ele>
        <time>2018-04-16T11:19:37Z</time>
      </trkpt>
      <trkpt lat="46.76704" lon="2.4316">
        <ele>163</ele>
        <time>2018-04-16T11:19:42Z</time>
      </trkpt>
      <trkpt lat="46.767" lon="2.4316">
        <ele>163</ele>
        <time>2018-04-16T11:19:50Z</time>
      </trkpt>
      <trkpt lat="46.76689" lon="2.43169">
        <ele>167</ele>
        <time>2018-04-16T11:20:00Z</time>
      </trkpt>
      <trkpt lat="46.76687" lon="2.4317">
        <ele>167</ele>
        <time>2018-04-16T11:20:06Z</time>
      </trkpt>
      <trkpt lat="46.76686" lon="2.43168">
        <ele>167</ele>
        <time>2018-04-16T11:20:08Z</time>
      </trkpt>
      <trkpt lat="46.76685" lon="2.43165">
        <ele>164</ele>
        <time>2018-04-16T11:20:09Z</time>
      </trkpt>
    </trkseg>
  </trk>
</gpx>